sensor_id;sensor_type;location;lat;lon;timestamp;pressure;altitude;pressure_sealevel;temperature;humidity
74680;BME280;63211;48.548;2.704;2023-02-15T00:00:52;101895.63;;;17.91;46.83
74680;BME280;63211;48.548;2.704;2023-02-15T00:03:20;101887.00;;;17.88;46.88
74680;BME280;63211;48.548;2.704;2023-02-15T00:05:48;101890.78;;;17.87;47.13
74680;BME280;63211;48.548;2.704;2023-02-15T00:08:15;101891.63;;;17.87;46.65
74680;BME280;63211;48.548;2.704;2023-02-15T00:10:41;101889.53;;;17.89;45.66
74680;BME280;63211;48.548;2.704;2023-02-15T00:13:08;101884.91;;;17.90;45.19
74680;BME280;63211;48.548;2.704;2023-02-15T00:15:35;101885.56;;;17.92;45.24
74680;BME280;63211;48.548;2.704;2023-02-15T00:18:01;101889.16;;;17.92;45.07
74680;BME280;63211;48.548;2.704;2023-02-15T00:20:28;101882.66;;;17.93;44.86
74680;BME280;63211;48.548;2.704;2023-02-15T00:22:56;101882.47;;;17.95;44.79
74680;BME280;63211;48.548;2.704;2023-02-15T00:25:22;101881.44;;;17.96;45.03
74680;BME280;63211;48.548;2.704;2023-02-15T00:27:49;101883.31;;;17.95;44.62
74680;BME280;63211;48.548;2.704;2023-02-15T00:30:16;101878.50;;;17.97;44.53
74680;BME280;63211;48.548;2.704;2023-02-15T00:32:43;101878.50;;;17.97;44.54
74680;BME280;63211;48.548;2.704;2023-02-15T00:35:09;101884.63;;;17.99;44.57
74680;BME280;63211;48.548;2.704;2023-02-15T00:37:36;101882.75;;;18.00;44.55
74680;BME280;63211;48.548;2.704;2023-02-15T00:40:05;101881.03;;;17.99;44.86
74680;BME280;63211;48.548;2.704;2023-02-15T00:42:32;101878.50;;;17.97;45.05
74680;BME280;63211;48.548;2.704;2023-02-15T00:44:59;101882.47;;;17.95;45.49
74680;BME280;63211;48.548;2.704;2023-02-15T00:47:25;101879.09;;;17.93;45.68
74680;BME280;63211;48.548;2.704;2023-02-15T00:49:52;101874.03;;;17.90;45.75
74680;BME280;63211;48.548;2.704;2023-02-15T00:52:19;101869.63;;;17.89;45.95
74680;BME280;63211;48.548;2.704;2023-02-15T00:54:45;101873.59;;;17.86;45.75
74680;BME280;63211;48.548;2.704;2023-02-15T00:57:13;101868.34;;;17.84;45.98
74680;BME280;63211;48.548;2.704;2023-02-15T00:59:40;101866.66;;;17.83;46.04
74680;BME280;63211;48.548;2.704;2023-02-15T01:02:06;101864.78;;;17.84;45.35
74680;BME280;63211;48.548;2.704;2023-02-15T01:04:33;101863.53;;;17.87;45.00
74680;BME280;63211;48.548;2.704;2023-02-15T01:07:00;101865.19;;;17.88;44.90
74680;BME280;63211;48.548;2.704;2023-02-15T01:09:28;101863.97;;;17.90;44.61
74680;BME280;63211;48.548;2.704;2023-02-15T01:11:55;101865.66;;;17.91;44.87
74680;BME280;63211;48.548;2.704;2023-02-15T01:14:23;101863.78;;;17.92;44.32
74680;BME280;63211;48.548;2.704;2023-02-15T01:16:50;101863.59;;;17.93;44.48
74680;BME280;63211;48.548;2.704;2023-02-15T01:19:16;101857.94;;;17.95;44.42
74680;BME280;63211;48.548;2.704;2023-02-15T01:21:43;101862.34;;;17.96;44.53
74680;BME280;63211;48.548;2.704;2023-02-15T01:24:12;101863.19;;;17.96;44.34
74680;BME280;63211;48.548;2.704;2023-02-15T01:26:39;101859.63;;;17.96;44.44
74680;BME280;63211;48.548;2.704;2023-02-15T01:29:05;101853.81;;;17.99;44.38
74680;BME280;63211;48.548;2.704;2023-02-15T01:31:33;101857.38;;;17.99;44.20
74680;BME280;63211;48.548;2.704;2023-02-15T01:34:00;101854.66;;;17.99;44.69
74680;BME280;63211;48.548;2.704;2023-02-15T01:36:27;101852.75;;;18.00;44.42
74680;BME280;63211;48.548;2.704;2023-02-15T01:38:53;101854.84;;;17.98;44.55
74680;BME280;63211;48.548;2.704;2023-02-15T01:41:20;101858.13;;;17.93;44.94
74680;BME280;63211;48.548;2.704;2023-02-15T01:43:50;101850.16;;;17.92;45.17
74680;BME280;63211;48.548;2.704;2023-02-15T01:46:20;101847.63;;;17.90;45.12
74680;BME280;63211;48.548;2.704;2023-02-15T01:48:52;101851.56;;;17.88;45.30
74680;BME280;63211;48.548;2.704;2023-02-15T01:51:23;101853.69;;;17.85;45.10
74680;BME280;63211;48.548;2.704;2023-02-15T01:53:52;101852.84;;;17.85;45.19
74680;BME280;63211;48.548;2.704;2023-02-15T01:56:22;101840.06;;;17.85;44.75
74680;BME280;63211;48.548;2.704;2023-02-15T01:58:51;101846.97;;;17.88;44.62
74680;BME280;63211;48.548;2.704;2023-02-15T02:01:21;101842.19;;;17.90;44.41
74680;BME280;63211;48.548;2.704;2023-02-15T02:03:57;101837.38;;;17.92;44.37
74680;BME280;63211;48.548;2.704;2023-02-15T02:06:26;101844.50;;;17.93;44.41
74680;BME280;63211;48.548;2.704;2023-02-15T02:08:54;101844.31;;;17.95;44.25
74680;BME280;63211;48.548;2.704;2023-02-15T02:11:21;101849.56;;;17.96;44.39
74680;BME280;63211;48.548;2.704;2023-02-15T02:13:50;101846.84;;;17.96;44.20
74680;BME280;63211;48.548;2.704;2023-02-15T02:16:22;101835.97;;;17.96;43.97
74680;BME280;63211;48.548;2.704;2023-02-15T02:19:04;101833.88;;;17.98;44.21
74680;BME280;63211;48.548;2.704;2023-02-15T02:22:00;101836.41;;;18.00;44.03
74680;BME280;63211;48.548;2.704;2023-02-15T02:24:50;101837.25;;;18.00;44.03
74680;BME280;63211;48.548;2.704;2023-02-15T02:27:33;101837.06;;;18.02;43.81
74680;BME280;63211;48.548;2.704;2023-02-15T02:30:40;101832.47;;;18.02;43.81
74680;BME280;63211;48.548;2.704;2023-02-15T02:36:15;101837.19;;;17.94;44.94
74680;BME280;63211;48.548;2.704;2023-02-15T02:38:53;101836.72;;;17.90;45.02
74680;BME280;63211;48.548;2.704;2023-02-15T02:41:27;101837.75;;;17.89;44.99
74680;BME280;63211;48.548;2.704;2023-02-15T02:44:04;101822.69;;;17.87;45.16
74680;BME280;63211;48.548;2.704;2023-02-15T02:46:33;101819.31;;;17.84;45.11
74680;BME280;63211;48.548;2.704;2023-02-15T02:49:04;101807.75;;;17.82;44.85
74680;BME280;63211;48.548;2.704;2023-02-15T02:51:31;101811.78;;;17.87;44.41
74680;BME280;63211;48.548;2.704;2023-02-15T02:54:00;101802.34;;;17.89;44.16
74680;BME280;63211;48.548;2.704;2023-02-15T02:56:33;101804.69;;;17.92;44.11
74680;BME280;63211;48.548;2.704;2023-02-15T02:59:06;101799.03;;;17.94;43.90
74680;BME280;63211;48.548;2.704;2023-02-15T03:01:39;101800.72;;;17.95;44.04
74680;BME280;63211;48.548;2.704;2023-02-15T03:04:12;101795.09;;;17.96;43.70
74680;BME280;63211;48.548;2.704;2023-02-15T03:06:44;101794.03;;;17.97;44.02
74680;BME280;63211;48.548;2.704;2023-02-15T03:09:17;101795.28;;;17.95;43.60
74680;BME280;63211;48.548;2.704;2023-02-15T03:11:45;101797.41;;;17.99;43.87
74680;BME280;63211;48.548;2.704;2023-02-15T03:14:14;101797.41;;;17.99;43.87
74680;BME280;63211;48.548;2.704;2023-02-15T03:16:44;101806.25;;;18.01;44.03
74680;BME280;63211;48.548;2.704;2023-02-15T03:19:15;101805.22;;;18.02;44.02
74680;BME280;63211;48.548;2.704;2023-02-15T03:21:47;101812.34;;;18.03;43.71
74680;BME280;63211;48.548;2.704;2023-02-15T03:24:24;101810.47;;;18.04;43.56
74680;BME280;63211;48.548;2.704;2023-02-15T03:26:53;101801.63;;;18.02;43.95
74680;BME280;63211;48.548;2.704;2023-02-15T03:29:23;101810.84;;;18.01;44.15
74680;BME280;63211;48.548;2.704;2023-02-15T03:31:54;101812.28;;;17.97;44.33
74680;BME280;63211;48.548;2.704;2023-02-15T03:34:24;101818.97;;;17.94;44.67
74680;BME280;63211;48.548;2.704;2023-02-15T03:36:57;101822.06;;;17.91;44.67
74680;BME280;63211;48.548;2.704;2023-02-15T03:39:30;101819.53;;;17.90;44.93
74680;BME280;63211;48.548;2.704;2023-02-15T03:42:06;101819.72;;;17.88;44.68
74680;BME280;63211;48.548;2.704;2023-02-15T03:44:41;101820.56;;;17.89;44.22
74680;BME280;63211;48.548;2.704;2023-02-15T03:47:15;101824.78;;;17.91;44.10
74680;BME280;63211;48.548;2.704;2023-02-15T03:49:48;101821.88;;;17.93;43.97
74680;BME280;63211;48.548;2.704;2023-02-15T03:52:17;101814.34;;;17.95;43.76
74680;BME280;63211;48.548;2.704;2023-02-15T03:54:45;101807.03;;;17.95;43.65
74680;BME280;63211;48.548;2.704;2023-02-15T03:57:15;101805.97;;;17.96;43.64
74680;BME280;63211;48.548;2.704;2023-02-15T04:00:00;101799.50;;;17.97;43.71
74680;BME280;63211;48.548;2.704;2023-02-15T04:02:54;101802.88;;;17.99;43.48
74680;BME280;63211;48.548;2.704;2023-02-15T04:05:27;101798.25;;;18.00;43.45
74680;BME280;63211;48.548;2.704;2023-02-15T04:07:54;101801.63;;;18.02;43.42
74680;BME280;63211;48.548;2.704;2023-02-15T04:10:21;101811.50;;;18.03;43.32
74680;BME280;63211;48.548;2.704;2023-02-15T04:13:04;101806.91;;;18.03;43.45
74680;BME280;63211;48.548;2.704;2023-02-15T04:15:31;101795.81;;;18.05;43.58
74680;BME280;63211;48.548;2.704;2023-02-15T04:18:15;101794.56;;;18.07;43.34
74680;BME280;63211;48.548;2.704;2023-02-15T04:20:44;101792.22;;;18.04;43.73
74680;BME280;63211;48.548;2.704;2023-02-15T04:23:29;101792.63;;;18.01;43.89
74680;BME280;63211;48.548;2.704;2023-02-15T04:26:13;101799.31;;;17.99;44.28
74680;BME280;63211;48.548;2.704;2023-02-15T04:28:39;101795.09;;;17.96;44.58
74680;BME280;63211;48.548;2.704;2023-02-15T04:31:06;101791.72;;;17.94;44.33
74680;BME280;63211;48.548;2.704;2023-02-15T04:33:32;101790.88;;;17.94;44.39
74680;BME280;63211;48.548;2.704;2023-02-15T04:36:02;101794.16;;;17.89;44.58
74680;BME280;63211;48.548;2.704;2023-02-15T04:38:29;101796.69;;;17.91;44.15
74680;BME280;63211;48.548;2.704;2023-02-15T04:40:56;101807.41;;;17.92;43.71
74680;BME280;63211;48.548;2.704;2023-02-15T04:43:22;101797.16;;;17.94;43.60
74680;BME280;63211;48.548;2.704;2023-02-15T04:45:49;101807.03;;;17.95;43.56
74680;BME280;63211;48.548;2.704;2023-02-15T04:48:17;101803.06;;;17.98;43.41
74680;BME280;63211;48.548;2.704;2023-02-15T04:50:44;101806.63;;;17.98;43.40
74680;BME280;63211;48.548;2.704;2023-02-15T04:53:12;101807.47;;;17.99;43.37
74680;BME280;63211;48.548;2.704;2023-02-15T04:55:39;101803.72;;;18.00;43.61
74680;BME280;63211;48.548;2.704;2023-02-15T04:58:05;101804.56;;;18.00;43.24
74680;BME280;63211;48.548;2.704;2023-02-15T05:00:32;101802.47;;;18.02;43.37
74680;BME280;63211;48.548;2.704;2023-02-15T05:02:59;101804.16;;;18.03;43.37
74680;BME280;63211;48.548;2.704;2023-02-15T05:05:25;101811.31;;;18.04;43.25
74680;BME280;63211;48.548;2.704;2023-02-15T05:07:52;101807.53;;;18.05;43.27
74680;BME280;63211;48.548;2.704;2023-02-15T05:10:20;101810.06;;;18.07;43.42
74680;BME280;63211;48.548;2.704;2023-02-15T05:12:47;101807.97;;;18.09;43.18
74680;BME280;63211;48.548;2.704;2023-02-15T05:15:14;101802.53;;;18.09;43.01
74680;BME280;63211;48.548;2.704;2023-02-15T05:17:40;101802.75;;;18.07;43.37
74680;BME280;63211;48.548;2.704;2023-02-15T05:20:07;101794.13;;;18.04;43.60
74680;BME280;63211;48.548;2.704;2023-02-15T05:22:34;101798.06;;;18.01;44.12
74680;BME280;63211;48.548;2.704;2023-02-15T05:25:01;101800.34;;;17.98;44.00
74680;BME280;63211;48.548;2.704;2023-02-15T05:27:46;101799.50;;;17.97;44.09
74680;BME280;63211;48.548;2.704;2023-02-15T05:30:30;101794.44;;;17.94;44.34
74680;BME280;63211;48.548;2.704;2023-02-15T05:32:56;101801.13;;;17.92;44.34
74680;BME280;63211;48.548;2.704;2023-02-15T05:35:23;101797.34;;;17.93;43.80
74680;BME280;63211;48.548;2.704;2023-02-15T05:37:49;101795.47;;;17.93;43.35
74680;BME280;63211;48.548;2.704;2023-02-15T05:40:16;101797.81;;;17.96;43.28
74680;BME280;63211;48.548;2.704;2023-02-15T05:42:43;101803.91;;;17.98;43.32
74680;BME280;63211;48.548;2.704;2023-02-15T05:45:11;101796.56;;;17.99;43.37
74680;BME280;63211;48.548;2.704;2023-02-15T05:47:37;101798.25;;;18.00;43.09
74680;BME280;63211;48.548;2.704;2023-02-15T05:50:05;101800.78;;;18.01;43.19
74680;BME280;63211;48.548;2.704;2023-02-15T05:52:33;101797.03;;;18.02;42.88
74680;BME280;63211;48.548;2.704;2023-02-15T05:54:59;101800.59;;;18.03;42.89
74680;BME280;63211;48.548;2.704;2023-02-15T05:57:27;101795.16;;;18.03;42.99
74680;BME280;63211;48.548;2.704;2023-02-15T05:59:54;101796.00;;;18.03;42.88
74680;BME280;63211;48.548;2.704;2023-02-15T06:02:22;101792.22;;;18.04;42.59
74680;BME280;63211;48.548;2.704;2023-02-15T06:04:49;101788.66;;;18.04;42.33
74680;BME280;63211;48.548;2.704;2023-02-15T06:07:15;101792.44;;;18.03;42.39
74680;BME280;63211;48.548;2.704;2023-02-15T06:09:42;101784.91;;;18.05;41.62
74680;BME280;63211;48.548;2.704;2023-02-15T06:12:09;101793.06;;;18.05;42.37
74680;BME280;63211;48.548;2.704;2023-02-15T06:14:35;101786.13;;;18.02;43.54
74680;BME280;63211;48.548;2.704;2023-02-15T06:17:02;101787.56;;;17.98;44.13
74680;BME280;63211;48.548;2.704;2023-02-15T06:19:30;101779.97;;;17.94;43.78
74680;BME280;63211;48.548;2.704;2023-02-15T06:21:56;101780.56;;;17.89;43.78
74680;BME280;63211;48.548;2.704;2023-02-15T06:24:23;101782.84;;;17.85;43.83
74680;BME280;63211;48.548;2.704;2023-02-15T06:26:50;101784.28;;;17.81;43.87
74680;BME280;63211;48.548;2.704;2023-02-15T06:29:17;101791.78;;;17.79;43.43
74680;BME280;63211;48.548;2.704;2023-02-15T06:31:43;101795.38;;;17.80;43.48
74680;BME280;63211;48.548;2.704;2023-02-15T06:34:10;101793.28;;;17.82;43.15
74680;BME280;63211;48.548;2.704;2023-02-15T06:36:38;101789.53;;;17.83;42.53
74680;BME280;63211;48.548;2.704;2023-02-15T06:39:04;101793.75;;;17.85;43.41
74680;BME280;63211;48.548;2.704;2023-02-15T06:41:31;101810.94;;;17.86;40.40
74680;BME280;63211;48.548;2.704;2023-02-15T06:43:58;101808.84;;;17.88;43.86
74680;BME280;63211;48.548;2.704;2023-02-15T06:46:25;101801.50;;;17.89;44.08
74680;BME280;63211;48.548;2.704;2023-02-15T06:48:51;101805.06;;;17.89;44.16
74680;BME280;63211;48.548;2.704;2023-02-15T06:51:18;101797.75;;;17.90;44.58
74680;BME280;63211;48.548;2.704;2023-02-15T06:53:46;101804.88;;;17.91;44.69
74680;BME280;63211;48.548;2.704;2023-02-15T06:56:13;101812.00;;;17.92;44.94
74680;BME280;63211;48.548;2.704;2023-02-15T06:58:40;101813.91;;;17.91;45.07
74680;BME280;63211;48.548;2.704;2023-02-15T07:01:07;101807.41;;;17.92;45.25
74680;BME280;63211;48.548;2.704;2023-02-15T07:03:35;101800.06;;;17.93;45.49
74680;BME280;63211;48.548;2.704;2023-02-15T07:06:03;101811.81;;;17.93;45.31
74680;BME280;63211;48.548;2.704;2023-02-15T07:08:33;101808.84;;;17.88;45.00
74680;BME280;63211;48.548;2.704;2023-02-15T07:11:02;101820.19;;;17.92;45.64
74680;BME280;63211;48.548;2.704;2023-02-15T07:13:42;101820.38;;;17.90;46.36
74680;BME280;63211;48.548;2.704;2023-02-15T07:16:09;101822.03;;;17.84;46.34
74680;BME280;63211;48.548;2.704;2023-02-15T07:18:36;101821.56;;;17.81;46.38
74680;BME280;63211;48.548;2.704;2023-02-15T07:21:04;101821.94;;;17.78;46.28
74680;BME280;63211;48.548;2.704;2023-02-15T07:23:33;101817.72;;;17.75;46.54
74680;BME280;63211;48.548;2.704;2023-02-15T07:26:01;101818.97;;;17.73;46.21
74680;BME280;63211;48.548;2.704;2023-02-15T07:28:28;101819.81;;;17.73;46.08
74680;BME280;63211;48.548;2.704;2023-02-15T07:30:55;101820.44;;;17.75;46.14
74680;BME280;63211;48.548;2.704;2023-02-15T07:33:22;101822.97;;;17.77;46.81
74680;BME280;63211;48.548;2.704;2023-02-15T07:35:49;101830.13;;;17.78;46.00
74680;BME280;63211;48.548;2.704;2023-02-15T07:38:17;101830.78;;;17.80;46.47
74680;BME280;63211;48.548;2.704;2023-02-15T07:40:44;101827.84;;;17.81;46.35
74680;BME280;63211;48.548;2.704;2023-02-15T07:43:13;101831.44;;;17.82;46.35
74680;BME280;63211;48.548;2.704;2023-02-15T07:45:39;101828.50;;;17.83;46.31
74680;BME280;63211;48.548;2.704;2023-02-15T07:48:06;101839.41;;;17.83;46.24
74680;BME280;63211;48.548;2.704;2023-02-15T07:50:34;101837.53;;;17.84;46.41
74680;BME280;63211;48.548;2.704;2023-02-15T07:53:01;101838.38;;;17.84;46.16
74680;BME280;63211;48.548;2.704;2023-02-15T07:55:28;101844.25;;;17.88;46.09
74680;BME280;63211;48.548;2.704;2023-02-15T07:57:55;101841.75;;;17.87;46.07
74680;BME280;63211;48.548;2.704;2023-02-15T08:00:24;101846.97;;;17.88;46.14
74680;BME280;63211;48.548;2.704;2023-02-15T08:02:52;101848.66;;;17.89;46.06
74680;BME280;63211;48.548;2.704;2023-02-15T08:05:33;101852.22;;;17.90;45.92
74680;BME280;63211;48.548;2.704;2023-02-15T08:07:59;101849.69;;;17.88;45.59
74680;BME280;63211;48.548;2.704;2023-02-15T08:10:26;101846.34;;;17.86;45.51
74680;BME280;63211;48.548;2.704;2023-02-15T08:13:13;101854.06;;;17.82;45.71
74680;BME280;63211;48.548;2.704;2023-02-15T08:15:47;101856.53;;;17.77;45.75
74680;BME280;63211;48.548;2.704;2023-02-15T08:18:14;101857.94;;;17.73;45.85
74680;BME280;63211;48.548;2.704;2023-02-15T08:20:41;101863.75;;;17.70;45.81
74680;BME280;63211;48.548;2.704;2023-02-15T08:23:08;101868.75;;;17.67;45.62
74680;BME280;63211;48.548;2.704;2023-02-15T08:25:35;101863.94;;;17.69;45.56
74680;BME280;63211;48.548;2.704;2023-02-15T08:28:01;101854.75;;;17.70;45.44
74680;BME280;63211;48.548;2.704;2023-02-15T08:30:28;101853.53;;;17.72;45.64
74680;BME280;63211;48.548;2.704;2023-02-15T08:32:56;101857.75;;;17.75;45.75
74680;BME280;63211;48.548;2.704;2023-02-15T08:35:23;101855.66;;;17.77;45.66
74680;BME280;63211;48.548;2.704;2023-02-15T08:37:51;101847.50;;;17.77;45.82
74680;BME280;63211;48.548;2.704;2023-02-15T08:40:17;101856.53;;;17.77;45.95
74680;BME280;63211;48.548;2.704;2023-02-15T08:42:44;101865.53;;;17.78;45.76
74680;BME280;63211;48.548;2.704;2023-02-15T08:45:10;101863.47;;;17.80;45.92
74680;BME280;63211;48.548;2.704;2023-02-15T08:47:37;101859.69;;;17.81;45.72
74680;BME280;63211;48.548;2.704;2023-02-15T08:50:06;101860.53;;;17.81;46.16
74680;BME280;63211;48.548;2.704;2023-02-15T08:52:33;101858.66;;;17.82;45.80
74680;BME280;63211;48.548;2.704;2023-02-15T08:54:59;101849.47;;;17.83;45.99
74680;BME280;63211;48.548;2.704;2023-02-15T08:57:27;101854.72;;;17.84;45.76
74680;BME280;63211;48.548;2.704;2023-02-15T08:59:53;101857.25;;;17.86;45.40
74680;BME280;63211;48.548;2.704;2023-02-15T09:02:20;101862.88;;;17.84;45.44
74680;BME280;63211;48.548;2.704;2023-02-15T09:04:47;101861.19;;;17.83;45.38
74680;BME280;63211;48.548;2.704;2023-02-15T09:07:14;101855.66;;;17.77;45.23
74680;BME280;63211;48.548;2.704;2023-02-15T09:09:43;101863.84;;;17.77;45.27
74680;BME280;63211;48.548;2.704;2023-02-15T09:12:10;101854.38;;;17.73;45.30
74680;BME280;63211;48.548;2.704;2023-02-15T09:14:37;101865.66;;;17.70;45.30
74680;BME280;63211;48.548;2.704;2023-02-15T09:17:04;101851.59;;;17.66;45.07
74680;BME280;63211;48.548;2.704;2023-02-15T09:19:31;101855.13;;;17.67;45.06
74680;BME280;63211;48.548;2.704;2023-02-15T09:21:58;101857.47;;;17.70;45.34
74680;BME280;63211;48.548;2.704;2023-02-15T09:24:27;101854.38;;;17.73;45.14
74680;BME280;63211;48.548;2.704;2023-02-15T09:26:53;101856.91;;;17.74;45.05
74680;BME280;63211;48.548;2.704;2023-02-15T09:29:20;101863.19;;;17.75;45.18
74680;BME280;63211;48.548;2.704;2023-02-15T09:31:49;101862.16;;;17.76;45.37
74680;BME280;63211;48.548;2.704;2023-02-15T09:34:16;101858.41;;;17.77;45.33
74680;BME280;63211;48.548;2.704;2023-02-15T09:36:44;101851.25;;;17.76;45.44
74680;BME280;63211;48.548;2.704;2023-02-15T09:39:14;101847.31;;;17.78;45.24
74680;BME280;63211;48.548;2.704;2023-02-15T09:42:02;101852.56;;;17.80;45.27
74680;BME280;63211;48.548;2.704;2023-02-15T09:44:43;101860.53;;;17.81;45.52
74680;BME280;63211;48.548;2.704;2023-02-15T09:47:31;101854.06;;;17.82;45.59
74680;BME280;63211;48.548;2.704;2023-02-15T09:50:06;101859.31;;;17.84;45.35
74680;BME280;63211;48.548;2.704;2023-02-15T09:52:49;101862.88;;;17.84;45.33
74680;BME280;63211;48.548;2.704;2023-02-15T09:55:28;101868.16;;;17.86;45.01
74680;BME280;63211;48.548;2.704;2023-02-15T09:58:07;101864.56;;;17.85;45.21
74680;BME280;63211;48.548;2.704;2023-02-15T10:00:43;101877.34;;;17.85;45.14
74680;BME280;63211;48.548;2.704;2023-02-15T10:03:29;101880.47;;;17.82;45.14
74680;BME280;63211;48.548;2.704;2023-02-15T10:06:14;101889.00;;;17.79;44.89
74680;BME280;63211;48.548;2.704;2023-02-15T10:09:01;101882.16;;;17.83;45.23
74680;BME280;63211;48.548;2.704;2023-02-15T10:11:40;101880.00;;;17.78;45.34
74680;BME280;63211;48.548;2.704;2023-02-15T10:14:28;101878.22;;;17.71;45.46
74680;BME280;63211;48.548;2.704;2023-02-15T10:17:12;101882.81;;;17.70;45.32
74680;BME280;63211;48.548;2.704;2023-02-15T10:19:50;101882.63;;;17.72;44.87
74680;BME280;63211;48.548;2.704;2023-02-15T10:22:31;101887.44;;;17.70;44.65
74680;BME280;63211;48.548;2.704;2023-02-15T10:25:09;101889.97;;;17.71;44.64
74680;BME280;63211;48.548;2.704;2023-02-15T10:27:45;101887.91;;;17.73;44.44
74680;BME280;63211;48.548;2.704;2023-02-15T10:30:15;101897.09;;;17.72;44.89
74680;BME280;63211;48.548;2.704;2023-02-15T10:32:55;101889.97;;;17.71;44.58
74680;BME280;63211;48.548;2.704;2023-02-15T10:35:34;101886.22;;;17.72;44.41
74680;BME280;63211;48.548;2.704;2023-02-15T10:38:10;101885.38;;;17.72;44.25
74680;BME280;63211;48.548;2.704;2023-02-15T10:40:49;101874.28;;;17.73;44.32
74680;BME280;63211;48.548;2.704;2023-02-15T10:43:41;101889.59;;;17.74;44.34
74680;BME280;63211;48.548;2.704;2023-02-15T10:46:23;101892.50;;;17.73;44.36
74680;BME280;63211;48.548;2.704;2023-02-15T10:49:08;101884.31;;;17.73;44.24
74680;BME280;63211;48.548;2.704;2023-02-15T10:51:45;101887.44;;;17.70;44.10
74680;BME280;63211;48.548;2.704;2023-02-15T10:54:22;101901.44;;;17.67;44.24
74680;BME280;63211;48.548;2.704;2023-02-15T10:56:59;101896.38;;;17.64;44.49
74680;BME280;63211;48.548;2.704;2023-02-15T10:59:42;101892.78;;;17.63;44.24
74680;BME280;63211;48.548;2.704;2023-02-15T11:02:22;101900.50;;;17.60;44.10
74680;BME280;63211;48.548;2.704;2023-02-15T11:04:57;101892.13;;;17.61;44.08
74680;BME280;63211;48.548;2.704;2023-02-15T11:07:32;101898.09;;;17.65;44.46
74680;BME280;63211;48.548;2.704;2023-02-15T11:10:07;101903.13;;;17.68;43.78
74680;BME280;63211;48.548;2.704;2023-02-15T11:12:41;101898.13;;;17.71;43.61
74680;BME280;63211;48.548;2.704;2023-02-15T11:15:15;101898.78;;;17.73;43.25
74680;BME280;63211;48.548;2.704;2023-02-15T11:17:49;101897.56;;;17.76;43.29
74680;BME280;63211;48.548;2.704;2023-02-15T11:20:24;101899.25;;;17.77;43.38
74680;BME280;63211;48.548;2.704;2023-02-15T11:22:52;101892.78;;;17.78;43.29
74680;BME280;63211;48.548;2.704;2023-02-15T11:25:23;101886.09;;;17.80;43.24
74680;BME280;63211;48.548;2.704;2023-02-15T11:27:51;101884.22;;;17.81;43.19
74680;BME280;63211;48.548;2.704;2023-02-15T11:30:21;101891.34;;;17.82;43.44
74680;BME280;63211;48.548;2.704;2023-02-15T11:32:52;101887.41;;;17.84;43.15
74680;BME280;63211;48.548;2.704;2023-02-15T11:35:25;101886.38;;;17.85;43.42
74680;BME280;63211;48.548;2.704;2023-02-15T11:37:57;101887.22;;;17.86;43.78
74680;BME280;63211;48.548;2.704;2023-02-15T11:40:27;101882.81;;;17.85;44.14
74680;BME280;63211;48.548;2.704;2023-02-15T11:42:56;101883.00;;;17.83;44.16
74680;BME280;63211;48.548;2.704;2023-02-15T11:45:27;101876.44;;;17.78;44.50
74680;BME280;63211;48.548;2.704;2023-02-15T11:47:56;101877.75;;;17.82;43.94
74680;BME280;63211;48.548;2.704;2023-02-15T11:50:25;101877.75;;;17.82;44.10
74680;BME280;63211;48.548;2.704;2023-02-15T11:52:57;101877.75;;;17.82;43.67
74680;BME280;63211;48.548;2.704;2023-02-15T11:55:27;101867.88;;;17.81;43.82
74680;BME280;63211;48.548;2.704;2023-02-15T11:57:57;101868.53;;;17.83;43.84
74680;BME280;63211;48.548;2.704;2023-02-15T12:00:32;101867.31;;;17.85;43.44
74680;BME280;63211;48.548;2.704;2023-02-15T12:03:09;101865.41;;;17.86;43.15
74680;BME280;63211;48.548;2.704;2023-02-15T12:05:40;101866.03;;;17.88;42.86
74680;BME280;63211;48.548;2.704;2023-02-15T12:08:16;101861.44;;;17.89;42.70
74680;BME280;63211;48.548;2.704;2023-02-15T12:10:55;101857.69;;;17.90;42.52
74680;BME280;63211;48.548;2.704;2023-02-15T12:13:23;101855.78;;;17.90;42.47
74680;BME280;63211;48.548;2.704;2023-02-15T12:15:51;101855.78;;;17.90;42.29
74680;BME280;63211;48.548;2.704;2023-02-15T12:18:33;101847.63;;;17.90;42.21
74680;BME280;63211;48.548;2.704;2023-02-15T12:21:02;101847.44;;;17.92;42.13
74680;BME280;63211;48.548;2.704;2023-02-15T12:23:31;101842.81;;;17.92;42.33
74680;BME280;63211;48.548;2.704;2023-02-15T12:25:59;101844.50;;;17.93;42.38
74680;BME280;63211;48.548;2.704;2023-02-15T12:28:31;101845.34;;;17.94;42.67
74680;BME280;63211;48.548;2.704;2023-02-15T12:31:01;101846.19;;;17.94;43.03
74680;BME280;63211;48.548;2.704;2023-02-15T12:33:31;101844.50;;;17.93;43.27
74680;BME280;63211;48.548;2.704;2023-02-15T12:36:03;101841.97;;;17.92;43.07
74680;BME280;63211;48.548;2.704;2023-02-15T12:38:36;101832.97;;;17.91;43.16
74680;BME280;63211;48.548;2.704;2023-02-15T12:41:04;101834.19;;;17.89;42.96
74680;BME280;63211;48.548;2.704;2023-02-15T12:43:33;101835.22;;;17.88;43.02
74680;BME280;63211;48.548;2.704;2023-02-15T12:46:14;101837.94;;;17.88;43.17
74680;BME280;63211;48.548;2.704;2023-02-15T12:48:46;101844.91;;;17.90;43.08
74680;BME280;63211;48.548;2.704;2023-02-15T12:51:14;101834.66;;;17.92;42.81
74680;BME280;63211;48.548;2.704;2023-02-15T12:53:41;101832.97;;;17.91;42.66
74680;BME280;63211;48.548;2.704;2023-02-15T12:56:10;101826.03;;;17.89;42.65
74680;BME280;63211;48.548;2.704;2023-02-15T12:58:38;101839.91;;;17.94;42.52
74680;BME280;63211;48.548;2.704;2023-02-15T13:01:14;101838.88;;;17.95;42.61
74680;BME280;63211;48.548;2.704;2023-02-15T13:03:56;101848.72;;;17.96;42.42
74680;BME280;63211;48.548;2.704;2023-02-15T13:06:23;101842.44;;;17.95;42.46
74680;BME280;63211;48.548;2.704;2023-02-15T13:08:51;101849.56;;;17.96;42.43
74680;BME280;63211;48.548;2.704;2023-02-15T13:11:21;101842.25;;;17.97;42.54